Time;durP1;ratioP1;P1;durP2;ratioP2;P2;SDS_P1;SDS_P2;PMS_P1;PMS_P2;Temp;Humidity;BMP_temperature;BMP_pressure;BME280_temperature;BME280_humidity;BME280_pressure;Samples;Min_cycle;Max_cycle;Signal;HPM_P1;HPM_P2
2023/01/03 00:18:43;;;;;;;5.30;2.53;;;;;;;;;;4969443;28;20520;-60
2023/01/03 00:21:18;;;;;;;4.90;2.72;;;;;;;;;;4973149;28;20058;-61
2023/01/03 00:23:45;;;;;;;3.88;2.20;;;;;;;;;;4972514;28;20109;-46
2023/01/03 00:26:14;;;;;;;2.85;1.70;;;;;;;;;;4969530;28;20055;-50
2023/01/03 00:28:48;;;;;;;4.05;1.95;;;;;;;;;;4968548;28;20429;-50
2023/01/03 00:31:15;;;;;;;2.15;1.70;;;;;;;;;;4972753;28;20046;-46
2023/01/03 00:33:49;;;;;;;3.60;1.58;;;;;;;;;;4970630;28;20058;-47
2023/01/03 00:36:16;;;;;;;2.60;1.50;;;;;;;;;;4956538;28;20603;-49
2023/01/03 00:38:43;;;;;;;3.75;1.70;;;;;;;;;;4969718;28;20059;-60
2023/01/03 00:41:18;;;;;;;2.08;1.30;;;;;;;;;;4968988;28;20058;-53
2023/01/03 00:43:47;;;;;;;1.92;1.42;;;;;;;;;;4969240;28;20514;-50
2023/01/03 00:46:21;;;;;;;4.07;1.50;;;;;;;;;;4970466;28;20054;-47
2023/01/03 00:48:48;;;;;;;4.07;1.55;;;;;;;;;;4971542;28;20054;-51
2023/01/03 00:51:15;;;;;;;;;;;;;;;;;;4971424;28;20504;-49
2023/01/03 00:53:50;;;;;;;2.40;1.70;;;;;;;;;;4971653;28;19928;-48
2023/01/03 00:56:19;;;;;;;3.50;1.58;;;;;;;;;;4970962;28;20145;-48
2023/01/03 00:58:46;;;;;;;2.95;1.60;;;;;;;;;;4971435;28;20053;-60
2023/01/03 01:01:25;;;;;;;3.35;1.40;;;;;;;;;;4969548;28;20061;-66
2023/01/03 01:03:54;;;;;;;2.95;1.52;;;;;;;;;;4970322;28;20421;-65
2023/01/03 01:06:29;;;;;;;2.28;1.40;;;;;;;;;;4974511;28;20043;-66
2023/01/03 01:08:57;;;;;;;5.50;1.65;;;;;;;;;;4971182;28;20506;-66
2023/01/03 01:11:31;;;;;;;4.05;1.70;;;;;;;;;;4968601;28;20053;-66
2023/01/03 01:13:58;;;;;;;2.50;1.50;;;;;;;;;;4970153;28;20137;-66
2023/01/03 01:16:38;;;;;;;2.38;1.48;;;;;;;;;;4972016;28;20410;-61
2023/01/03 01:19:05;;;;;;;3.72;1.30;;;;;;;;;;4969999;28;20484;-62
2023/01/03 01:21:39;;;;;;;4.05;1.65;;;;;;;;;;4973191;28;20058;-62
2023/01/03 01:24:06;;;;;;;2.75;1.50;;;;;;;;;;4969255;28;20256;-62
2023/01/03 01:26:40;;;;;;;5.95;1.63;;;;;;;;;;4970666;28;20097;-62
2023/01/03 01:29:14;;;;;;;3.67;1.90;;;;;;;;;;4969047;28;20134;-61
2023/01/03 01:31:42;;;;;;;1.67;1.50;;;;;;;;;;4972026;28;20065;-62
2023/01/03 01:34:16;;;;;;;4.32;1.67;;;;;;;;;;4971442;28;20054;-56
2023/01/03 01:36:44;;;;;;;1.98;1.70;;;;;;;;;;4969262;28;20129;-56
2023/01/03 01:39:13;;;;;;;3.17;1.65;;;;;;;;;;4968514;28;20580;-55
2023/01/03 01:44:42;;;;;;;4.90;1.60;;;;;;;;;;4970468;28;20133;-54
2023/01/03 01:47:35;;;;;;;4.93;1.85;;;;;;;;;;4969675;28;20060;-54
2023/01/03 01:50:12;;;;;;;6.28;2.05;;;;;;;;;;4974440;28;20053;-54
2023/01/03 01:52:50;;;;;;;6.20;2.28;;;;;;;;;;4975873;28;20469;-48
2023/01/03 01:55:19;;;;;;;5.07;2.28;;;;;;;;;;4970690;28;20058;-53
2023/01/03 01:57:53;;;;;;;6.07;2.75;;;;;;;;;;4962772;28;20542;-51
2023/01/03 02:00:20;;;;;;;8.23;3.22;;;;;;;;;;4975096;28;20473;-55
2023/01/03 02:02:49;;;;;;;5.82;2.40;;;;;;;;;;4964453;28;20133;-55
2023/01/03 02:05:24;;;;;;;8.80;3.53;;;;;;;;;;4975855;28;20104;-54
2023/01/03 02:07:51;;;;;;;7.28;3.33;;;;;;;;;;4973482;28;20133;-57
2023/01/03 02:10:23;;;;;;;7.82;3.40;;;;;;;;;;4975214;28;20050;-50
2023/01/03 02:13:06;;;;;;;;;;;;;;;;;;4971939;28;20074;-57
2023/01/03 02:15:39;;;;;;;9.38;4.22;;;;;;;;;;4976606;28;19925;-60
2023/01/03 02:18:35;;;;;;;12.15;5.00;;;;;;;;;;4974201;28;20417;-59
2023/01/03 02:21:14;;;;;;;9.70;4.70;;;;;;;;;;4969158;28;20107;-60
2023/01/03 02:24:06;;;;;;;9.73;4.68;;;;;;;;;;4966769;28;20050;-60
2023/01/03 02:26:52;;;;;;;8.60;4.90;;;;;;;;;;4971046;28;20143;-60
2023/01/03 02:29:44;;;;;;;10.23;4.60;;;;;;;;;;4968441;28;20585;-62
2023/01/03 02:32:14;;;;;;;9.10;4.55;;;;;;;;;;4968172;28;20058;-59
2023/01/03 02:34:50;;;;;;;13.70;4.70;;;;;;;;;;4964936;28;20077;-60
2023/01/03 02:37:36;;;;;;;7.07;4.47;;;;;;;;;;4964669;28;20163;-59
2023/01/03 02:40:21;;;;;;;7.63;3.80;;;;;;;;;;4969036;28;20056;-61
2023/01/03 02:43:08;;;;;;;5.70;4.15;;;;;;;;;;4973168;28;20057;-61
2023/01/03 02:45:53;;;;;;;7.18;3.80;;;;;;;;;;4971618;28;20594;-60
2023/01/03 02:48:33;;;;;;;6.15;3.60;;;;;;;;;;4968467;28;20499;-66
2023/01/03 02:51:03;;;;;;;5.07;3.38;;;;;;;;;;4967416;28;20047;-60
2023/01/03 02:53:46;;;;;;;5.97;3.60;;;;;;;;;;4961317;28;20141;-59
2023/01/03 02:56:16;;;;;;;6.82;3.83;;;;;;;;;;4967250;28;20089;-59
2023/01/03 02:58:52;;;;;;;6.43;3.78;;;;;;;;;;4969711;28;20074;-60
2023/01/03 03:01:20;;;;;;;8.35;4.15;;;;;;;;;;4968586;28;20062;-60
2023/01/03 03:03:54;;;;;;;8.75;3.63;;;;;;;;;;4970268;28;20145;-60
2023/01/03 03:06:21;;;;;;;6.10;3.50;;;;;;;;;;4971621;28;20056;-66
2023/01/03 03:08:55;;;;;;;6.28;3.63;;;;;;;;;;4971516;28;20077;-58
2023/01/03 03:14:24;;;;;;;5.70;3.33;;;;;;;;;;4971170;28;20057;-59
2023/01/03 03:16:53;;;;;;;5.88;3.58;;;;;;;;;;4969730;28;20141;-60
2023/01/03 03:25:28;;;;;;;6.00;3.60;;;;;;;;;;4968487;28;20086;-63
2023/01/03 03:30:56;;;;;;;7.10;3.05;;;;;;;;;;4977450;28;20057;-51
2023/01/03 03:33:24;;;;;;;5.78;3.47;;;;;;;;;;4972586;28;20051;-49
2023/01/03 03:36:01;;;;;;;6.63;3.15;;;;;;;;;;4971268;28;20104;-49
2023/01/03 03:38:37;;;;;;;5.28;3.22;;;;;;;;;;4970669;28;20142;-47
2023/01/03 03:47:36;;;;;;;5.63;2.60;;;;;;;;;;4970294;28;20398;-53
2023/01/03 03:50:07;;;;;;;5.70;2.40;;;;;;;;;;4971615;28;20303;-53
2023/01/03 03:52:43;;;;;;;5.75;2.63;;;;;;;;;;4971653;28;20054;-56
2023/01/03 03:55:13;;;;;;;5.32;2.38;;;;;;;;;;4969396;28;20567;-56
2023/01/03 03:57:48;;;;;;;4.30;2.58;;;;;;;;;;4968515;28;20642;-56
2023/01/03 04:00:24;;;;;;;4.35;2.50;;;;;;;;;;4964430;28;20058;-61
2023/01/03 04:02:53;;;;;;;5.05;3.00;;;;;;;;;;4953348;28;20046;-54
2023/01/03 04:05:29;;;;;;;3.60;2.22;;;;;;;;;;4965202;28;20081;-61
2023/01/03 04:07:56;;;;;;;4.93;2.50;;;;;;;;;;4970234;28;20065;-61
2023/01/03 04:10:30;;;;;;;5.35;2.50;;;;;;;;;;4966530;28;20046;-61
2023/01/03 04:13:03;;;;;;;5.10;2.50;;;;;;;;;;4965478;28;20178;-59
2023/01/03 04:15:37;;;;;;;4.57;2.40;;;;;;;;;;4966020;28;20428;-58
2023/01/03 04:18:11;;;;;;;3.50;2.28;;;;;;;;;;4966741;28;20487;-61
2023/01/03 04:20:51;;;;;;;8.35;2.80;;;;;;;;;;4966823;28;20050;-67
2023/01/03 04:23:25;;;;;;;4.07;2.25;;;;;;;;;;4969198;28;20054;-63
2023/01/03 04:25:52;;;;;;;5.25;2.45;;;;;;;;;;4967885;28;20254;-62
2023/01/03 04:28:19;;;;;;;4.75;2.47;;;;;;;;;;4973653;28;20494;-62
2023/01/03 04:30:53;;;;;;;3.47;2.45;;;;;;;;;;4976927;28;20528;-62
2023/01/03 04:33:20;;;;;;;4.60;2.50;;;;;;;;;;4973473;28;20061;-63
2023/01/03 04:35:54;;;;;;;3.65;2.33;;;;;;;;;;4973794;28;20050;-62
2023/01/03 04:38:21;;;;;;;4.35;2.53;;;;;;;;;;4977649;28;20509;-61
2023/01/03 04:40:48;;;;;;;4.63;2.40;;;;;;;;;;4967471;28;20060;-63
2023/01/03 04:46:08;;;;;;;4.43;2.67;;;;;;;;;;4977855;28;20057;-62
2023/01/03 04:48:42;;;;;;;3.58;2.70;;;;;;;;;;4976974;28;20050;-62
2023/01/03 04:51:09;;;;;;;4.03;2.60;;;;;;;;;;4973412;28;20425;-62
2023/01/03 04:53:36;;;;;;;4.70;2.75;;;;;;;;;;4975446;28;20055;-62
2023/01/03 04:56:10;;;;;;;6.25;3.00;;;;;;;;;;4973944;28;20055;-55
2023/01/03 04:58:44;;;;;;;8.18;3.13;;;;;;;;;;4974975;28;20121;-61
2023/01/03 05:01:11;;;;;;;7.70;3.60;;;;;;;;;;4969792;28;20050;-60
2023/01/03 05:03:38;;;;;;;;;;;;;;;;;;4969537;28;20065;-61
2023/01/03 05:06:12;;;;;;;5.97;3.60;;;;;;;;;;4971027;28;20381;-60
2023/01/03 05:08:39;;;;;;;10.90;3.90;;;;;;;;;;4971362;28;20081;-60
2023/01/03 05:11:13;;;;;;;8.73;3.30;;;;;;;;;;4969429;28;20058;-59
2023/01/03 05:13:40;;;;;;;5.78;2.75;;;;;;;;;;4967909;28;20050;-59
2023/01/03 05:16:12;;;;;;;6.07;2.67;;;;;;;;;;4972190;28;20058;-52
2023/01/03 05:18:53;;;;;;;4.65;2.90;;;;;;;;;;4972532;28;20062;-50
2023/01/03 05:27:01;;;;;;;6.65;2.90;;;;;;;;;;4966651;28;20051;-48
2023/01/03 05:29:35;;;;;;;5.35;2.88;;;;;;;;;;4972853;28;20420;-49
2023/01/03 05:32:03;;;;;;;11.13;3.38;;;;;;;;;;4974256;28;20430;-49
2023/01/03 05:34:30;;;;;;;8.05;3.40;;;;;;;;;;4971884;28;20476;-50
2023/01/03 05:37:04;;;;;;;6.57;3.65;;;;;;;;;;4977442;28;20096;-47
2023/01/03 05:39:31;;;;;;;10.23;4.55;;;;;;;;;;4967481;28;21565;-48
2023/01/03 05:42:05;;;;;;;7.90;4.18;;;;;;;;;;4969889;28;20141;-50
2023/01/03 05:44:33;;;;;;;7.20;3.70;;;;;;;;;;4970967;28;20065;-47
2023/01/03 05:47:01;;;;;;;10.18;4.00;;;;;;;;;;4965708;28;20484;-47
2023/01/03 05:49:35;;;;;;;7.35;3.80;;;;;;;;;;4963469;28;20502;-48
2023/01/03 05:52:02;;;;;;;10.38;4.35;;;;;;;;;;4968534;28;20146;-67
2023/01/03 05:54:29;;;;;;;15.05;4.95;;;;;;;;;;4963993;28;20442;-67
2023/01/03 05:57:03;;;;;;;18.13;4.80;;;;;;;;;;4970237;28;20505;-67
2023/01/03 05:59:30;;;;;;;9.70;4.45;;;;;;;;;;4971417;28;20078;-67
2023/01/03 06:01:57;;;;;;;10.23;4.70;;;;;;;;;;4973283;28;20084;-67
2023/01/03 06:04:31;;;;;;;10.10;4.53;;;;;;;;;;4976420;28;20061;-67
2023/01/03 06:06:58;;;;;;;10.93;4.82;;;;;;;;;;4975073;28;20078;-67
2023/01/03 06:09:32;;;;;;;13.05;4.90;;;;;;;;;;4973893;28;20065;-61
2023/01/03 06:11:59;;;;;;;14.20;4.88;;;;;;;;;;4972921;28;20418;-62
2023/01/03 06:14:26;;;;;;;14.25;4.47;;;;;;;;;;4967330;28;20461;-62
2023/01/03 06:20:05;;;;;;;15.00;4.75;;;;;;;;;;4974613;28;20605;-59
2023/01/03 06:22:39;;;;;;;12.13;4.15;;;;;;;;;;4971943;28;20498;-61
2023/01/03 06:25:06;;;;;;;9.90;4.38;;;;;;;;;;4970948;28;20065;-59
2023/01/03 06:27:33;;;;;;;8.73;4.22;;;;;;;;;;4970950;28;20137;-60
2023/01/03 06:30:07;;;;;;;16.67;4.50;;;;;;;;;;4970598;28;20581;-49
2023/01/03 06:32:34;;;;;;;;;;;;;;;;;;4970979;28;20054;-60
2023/01/03 06:35:08;;;;;;;13.68;4.72;;;;;;;;;;4970277;28;19922;-60
2023/01/03 06:37:35;;;;;;;;;;;;;;;;;;4973707;28;20060;-59
2023/01/03 06:40:02;;;;;;;12.95;4.88;;;;;;;;;;4969543;28;20582;-59
2023/01/03 06:42:39;;;;;;;9.48;4.47;;;;;;;;;;4967559;28;20069;-60
2023/01/03 06:53:42;;;;;;;15.20;5.13;;;;;;;;;;4972874;28;20069;-67
2023/01/03 06:56:10;;;;;;;11.27;4.60;;;;;;;;;;4973406;28;20153;-67
2023/01/03 06:58:37;;;;;;;10.18;4.22;;;;;;;;;;4976073;28;20052;-66
2023/01/03 07:01:12;;;;;;;11.90;4.22;;;;;;;;;;4974770;28;20520;-67
2023/01/03 07:03:39;;;;;;;8.93;3.72;;;;;;;;;;4972810;28;20082;-67
2023/01/03 07:06:13;;;;;;;9.68;3.92;;;;;;;;;;4970648;28;20899;-66
2023/01/03 07:08:40;;;;;;;7.18;3.60;;;;;;;;;;4964586;28;20129;-61
2023/01/03 07:11:14;;;;;;;4.00;2.90;;;;;;;;;;4970897;28;20108;-59
2023/01/03 07:13:57;;;;;;;5.57;3.03;;;;;;;;;;4968832;28;20518;-58
2023/01/03 07:16:32;;;;;;;5.43;2.88;;;;;;;;;;4969366;28;20058;-60
2023/01/03 07:19:14;;;;;;;8.50;3.00;;;;;;;;;;4969937;28;20066;-59
2023/01/03 07:21:42;;;;;;;4.95;3.08;;;;;;;;;;4967626;28;20065;-60
2023/01/03 07:24:18;;;;;;;4.70;3.15;;;;;;;;;;4967846;28;20056;-49
2023/01/03 07:26:46;;;;;;;4.05;2.90;;;;;;;;;;4970550;28;20195;-68
2023/01/03 07:29:13;;;;;;;5.55;2.80;;;;;;;;;;4970744;28;20107;-66
2023/01/03 07:31:47;;;;;;;3.78;2.78;;;;;;;;;;4969542;28;20058;-67
2023/01/03 07:34:14;;;;;;;3.40;2.33;;;;;;;;;;4967896;28;20058;-66
2023/01/03 07:36:48;;;;;;;5.00;2.40;;;;;;;;;;4967508;28;20138;-67
2023/01/03 07:39:15;;;;;;;2.95;2.10;;;;;;;;;;4970024;28;20647;-67
2023/01/03 07:44:35;;;;;;;5.75;2.25;;;;;;;;;;4967599;28;20060;-47
2023/01/03 07:47:02;;;;;;;6.85;2.20;;;;;;;;;;4967041;28;20064;-49
2023/01/03 07:49:36;;;;;;;3.35;1.85;;;;;;;;;;4969561;28;20166;-47
2023/01/03 07:52:03;;;;;;;3.92;1.92;;;;;;;;;;4968640;28;20042;-47
2023/01/03 07:54:37;;;;;;;3.45;2.08;;;;;;;;;;4964800;28;20150;-50
2023/01/03 07:57:04;;;;;;;3.03;2.15;;;;;;;;;;4965316;28;20047;-49
2023/01/03 07:59:31;;;;;;;5.00;2.10;;;;;;;;;;4963988;28;20523;-62
2023/01/03 08:02:05;;;;;;;5.65;3.10;;;;;;;;;;4967314;28;20578;-47
2023/01/03 08:04:32;;;;;;;3.50;2.60;;;;;;;;;;4973440;28;20061;-61
2023/01/03 08:07:06;;;;;;;4.72;2.55;;;;;;;;;;4972438;28;20054;-61
2023/01/03 08:15:12;;;;;;;5.13;2.55;;;;;;;;;;4976882;28;20145;-61
2023/01/03 08:17:46;;;;;;;5.35;3.13;;;;;;;;;;4976084;28;20051;-48
2023/01/03 08:20:27;;;;;;;5.10;3.08;;;;;;;;;;4974637;28;20077;-57
2023/01/03 08:22:54;;;;;;;7.35;3.72;;;;;;;;;;4973695;28;20057;-55
2023/01/03 08:25:28;;;;;;;5.05;2.70;;;;;;;;;;4972442;28;20149;-52
2023/01/03 08:27:58;;;;;;;4.25;2.45;;;;;;;;;;4971797;28;20150;-52
2023/01/03 08:30:27;;;;;;;4.13;2.50;;;;;;;;;;4967234;28;20564;-55
2023/01/03 08:33:02;;;;;;;3.22;2.35;;;;;;;;;;4971785;28;20429;-56
2023/01/03 08:35:31;;;;;;;6.13;2.65;;;;;;;;;;4969102;28;20176;-50
2023/01/03 08:38:06;;;;;;;3.58;2.40;;;;;;;;;;4971374;28;20108;-61
2023/01/03 08:40:36;;;;;;;4.50;2.60;;;;;;;;;;4970958;28;20841;-49
2023/01/03 08:43:10;;;;;;;3.05;2.22;;;;;;;;;;4965269;28;20051;-52
2023/01/03 08:45:44;;;;;;;5.18;2.25;;;;;;;;;;4968865;28;20211;-47
2023/01/03 08:48:11;;;;;;;5.10;2.03;;;;;;;;;;4976134;28;20392;-50
2023/01/03 08:50:45;;;;;;;3.95;2.35;;;;;;;;;;4969571;28;20065;-50
2023/01/03 08:53:12;;;;;;;5.82;2.50;;;;;;;;;;4969354;28;20057;-48
2023/01/03 08:55:39;;;;;;;4.18;2.30;;;;;;;;;;4975233;28;20137;-63
2023/01/03 08:58:13;;;;;;;4.40;2.40;;;;;;;;;;4971325;28;20582;-50
2023/01/03 09:00:40;;;;;;;4.57;2.67;;;;;;;;;;4969903;28;20142;-48
2023/01/03 09:03:14;;;;;;;3.17;2.30;;;;;;;;;;4968487;28;20054;-48
2023/01/03 09:05:41;;;;;;;2.85;2.25;;;;;;;;;;4968182;28;20051;-49
2023/01/03 09:08:08;;;;;;;4.00;2.65;;;;;;;;;;4966726;28;20193;-49
2023/01/03 09:10:42;;;;;;;2.78;2.08;;;;;;;;;;4977354;28;20149;-51
2023/01/03 09:13:13;;;;;;;3.17;2.30;;;;;;;;;;4968059;28;20078;-61
2023/01/03 09:15:47;;;;;;;6.75;2.65;;;;;;;;;;4968217;28;20509;-47
2023/01/03 09:18:20;;;;;;;2.88;2.20;;;;;;;;;;4961929;28;20070;-61
2023/01/03 09:20:54;;;;;;;3.30;2.08;;;;;;;;;;4968015;28;20457;-61
2023/01/03 09:23:21;;;;;;;3.70;2.15;;;;;;;;;;4965256;28;20096;-62
2023/01/03 09:25:48;;;;;;;3.80;2.20;;;;;;;;;;4972750;28;20181;-59
2023/01/03 09:28:22;;;;;;;4.90;2.33;;;;;;;;;;4961180;28;20861;-60
2023/01/03 09:30:49;;;;;;;3.25;2.03;;;;;;;;;;4966716;28;20594;-60
2023/01/03 09:33:23;;;;;;;5.10;2.75;;;;;;;;;;4967186;28;20066;-48
2023/01/03 09:35:53;;;;;;;3.63;2.25;;;;;;;;;;4970643;28;20077;-58
2023/01/03 09:38:21;;;;;;;3.60;1.85;;;;;;;;;;4962742;28;21801;-55
2023/01/03 09:41:04;;;;;;;3.72;2.20;;;;;;;;;;4968282;28;20073;-50
2023/01/03 09:43:42;;;;;;;3.00;2.10;;;;;;;;;;4968795;28;20470;-52
2023/01/03 09:46:20;;;;;;;3.08;2.22;;;;;;;;;;4966678;28;20062;-51
2023/01/03 09:48:48;;;;;;;2.97;2.45;;;;;;;;;;4967355;28;20250;-54
2023/01/03 10:06:35;;;;;;;2.00;1.70;;;;;;;;;;4961643;28;20070;-60
2023/01/03 10:09:08;;;;;;;2.78;1.67;;;;;;;;;;4971284;28;20076;-54
2023/01/03 10:12:15;;;;;;;3.85;1.48;;;;;;;;;;4977779;28;20057;-67
2023/01/03 10:15:01;;;;;;;2.75;2.10;;;;;;;;;;4948347;28;20561;-67
2023/01/03 10:17:48;;;;;;;2.28;1.63;;;;;;;;;;4973237;28;20215;-67
2023/01/03 10:20:28;;;;;;;1.73;1.40;;;;;;;;;;4966731;28;20046;-68
2023/01/03 10:23:03;;;;;;;1.80;1.38;;;;;;;;;;4960630;28;20061;-67
2023/01/03 10:25:38;;;;;;;2.60;1.30;;;;;;;;;;4969367;28;20054;-67
2023/01/03 10:28:19;;;;;;;2.13;1.45;;;;;;;;;;4960270;28;20070;-60
2023/01/03 10:30:56;;;;;;;3.42;1.58;;;;;;;;;;4966495;28;20417;-60
2023/01/03 10:33:34;;;;;;;5.18;1.70;;;;;;;;;;4965610;28;20054;-61
2023/01/03 10:36:08;;;;;;;1.42;1.30;;;;;;;;;;4965691;28;20157;-61
2023/01/03 10:38:36;;;;;;;2.85;1.55;;;;;;;;;;4969244;28;20046;-61
2023/01/03 10:41:29;;;;;;;2.13;1.42;;;;;;;;;;4966523;28;20062;-60
2023/01/03 10:43:57;;;;;;;3.60;1.48;;;;;;;;;;4970093;28;20057;-61
2023/01/03 10:46:31;;;;;;;2.13;1.50;;;;;;;;;;4968848;28;20062;-47
2023/01/03 10:49:17;;;;;;;1.90;1.55;;;;;;;;;;4959965;28;20055;-61
2023/01/03 10:52:14;;;;;;;2.55;1.60;;;;;;;;;;4965475;28;20055;-61
2023/01/03 10:54:47;;;;;;;2.13;1.45;;;;;;;;;;4966828;28;20146;-61
2023/01/03 10:57:42;;;;;;;2.72;1.90;;;;;;;;;;4963880;28;20141;-61
2023/01/03 11:00:20;;;;;;;1.55;1.30;;;;;;;;;;4964385;28;20148;-61
2023/01/03 11:02:55;;;;;;;1.45;1.30;;;;;;;;;;4968997;28;20105;-61
2023/01/03 11:05:24;;;;;;;3.40;1.30;;;;;;;;;;4971327;28;20465;-60
2023/01/03 11:08:08;;;;;;;3.05;1.60;;;;;;;;;;4966944;28;20149;-62
2023/01/03 11:10:56;;;;;;;2.13;1.48;;;;;;;;;;4964029;28;20053;-62
2023/01/03 11:13:40;;;;;;;1.55;1.45;;;;;;;;;;4964071;28;20120;-62
2023/01/03 11:16:14;;;;;;;2.60;1.90;;;;;;;;;;4964334;28;20098;-63
2023/01/03 11:19:05;;;;;;;2.70;1.77;;;;;;;;;;4965414;28;20061;-62
2023/01/03 11:21:41;;;;;;;3.58;1.70;;;;;;;;;;4969019;28;20058;-52
2023/01/03 11:24:21;;;;;;;2.63;1.98;;;;;;;;;;4966021;28;20065;-54
2023/01/03 11:26:51;;;;;;;3.97;2.28;;;;;;;;;;4968960;28;20155;-54
2023/01/03 11:29:33;;;;;;;3.35;1.90;;;;;;;;;;4970809;28;20076;-55
2023/01/03 11:32:09;;;;;;;2.92;1.88;;;;;;;;;;4970808;28;20054;-55
2023/01/03 11:35:01;;;;;;;3.58;1.85;;;;;;;;;;4966993;28;20054;-52
2023/01/03 11:38:06;;;;;;;2.60;2.20;;;;;;;;;;4963545;28;20497;-54
2023/01/03 11:40:58;;;;;;;4.70;2.10;;;;;;;;;;4968187;28;20078;-61
2023/01/03 11:43:41;;;;;;;4.30;1.80;;;;;;;;;;4966905;28;20541;-61
2023/01/03 11:46:27;;;;;;;2.40;1.90;;;;;;;;;;4953510;28;20869;-60
2023/01/03 11:49:13;;;;;;;2.95;1.90;;;;;;;;;;4964226;28;20070;-61
2023/01/03 11:51:50;;;;;;;2.08;1.40;;;;;;;;;;4963952;28;20121;-60
2023/01/03 11:54:35;;;;;;;1.90;1.55;;;;;;;;;;4963452;28;20054;-60
2023/01/03 11:57:27;;;;;;;3.47;1.52;;;;;;;;;;4963653;28;20054;-60
2023/01/03 12:00:12;;;;;;;2.63;1.70;;;;;;;;;;4963436;28;20051;-54
2023/01/03 12:03:15;;;;;;;3.20;1.83;;;;;;;;;;4967262;28;20058;-60
2023/01/03 12:05:47;;;;;;;3.38;1.75;;;;;;;;;;4901620;28;20052;-60
2023/01/03 12:08:32;;;;;;;5.00;1.90;;;;;;;;;;4965427;28;20046;-61
2023/01/03 12:11:03;;;;;;;2.22;1.70;;;;;;;;;;4964435;28;20065;-61
2023/01/03 12:13:37;;;;;;;;;;;;;;;;;;4967482;28;20059;-60
2023/01/03 12:16:10;;;;;;;2.72;1.60;;;;;;;;;;4961795;28;19936;-59
2023/01/03 12:18:57;;;;;;;2.50;1.73;;;;;;;;;;4967222;28;20109;-47
2023/01/03 12:21:41;;;;;;;4.68;1.80;;;;;;;;;;4965306;28;20058;-48
2023/01/03 12:24:17;;;;;;;2.28;1.85;;;;;;;;;;4964751;28;20082;-49
2023/01/03 12:26:50;;;;;;;3.65;2.20;;;;;;;;;;4962376;28;20057;-51
2023/01/03 12:29:26;;;;;;;3.25;2.10;;;;;;;;;;4963164;28;20051;-47
2023/01/03 12:31:56;;;;;;;3.30;2.20;;;;;;;;;;4966021;28;20137;-48
2023/01/03 12:34:42;;;;;;;4.13;2.05;;;;;;;;;;4968389;28;20506;-53
2023/01/03 12:37:16;;;;;;;3.33;1.98;;;;;;;;;;4963192;28;20520;-60
2023/01/03 12:40:02;;;;;;;3.40;2.25;;;;;;;;;;4965912;28;20054;-60
2023/01/03 12:42:46;;;;;;;4.72;2.30;;;;;;;;;;4961552;28;20306;-60
2023/01/03 12:45:32;;;;;;;2.73;2.17;;;;;;;;;;4962989;28;20054;-60
2023/01/03 12:48:06;;;;;;;3.80;1.80;;;;;;;;;;4969202;28;20667;-59
2023/01/03 12:50:36;;;;;;;2.88;2.10;;;;;;;;;;4970670;28;20139;-61
2023/01/03 12:53:10;;;;;;;12.18;6.75;;;;;;;;;;4968198;28;20089;-60
2023/01/03 12:55:40;;;;;;;3.55;1.90;;;;;;;;;;4966745;28;20121;-56
2023/01/03 12:58:25;;;;;;;3.03;1.90;;;;;;;;;;4970161;28;20054;-60
2023/01/03 13:00:52;;;;;;;;;;;;;;;;;;4967348;28;20043;-61
2023/01/03 13:03:34;;;;;;;2.58;1.92;;;;;;;;;;4970692;28;19934;-58
2023/01/03 13:06:04;;;;;;;4.78;2.10;;;;;;;;;;4971046;28;20462;-59
2023/01/03 13:08:40;;;;;;;2.22;1.98;;;;;;;;;;4972479;28;20064;-59
2023/01/03 13:11:14;;;;;;;3.83;2.45;;;;;;;;;;4970222;28;20392;-60
2023/01/03 13:13:56;;;;;;;2.22;1.98;;;;;;;;;;4968982;28;20081;-63
2023/01/03 13:16:30;;;;;;;2.28;1.77;;;;;;;;;;4967037;28;20513;-55
2023/01/03 13:19:23;;;;;;;3.65;1.90;;;;;;;;;;4970716;28;20069;-54
2023/01/03 13:21:53;;;;;;;5.15;3.08;;;;;;;;;;4968008;28;20156;-53
2023/01/03 13:24:44;;;;;;;4.00;2.50;;;;;;;;;;4963575;28;20509;-51
2023/01/03 13:27:20;;;;;;;3.85;2.83;;;;;;;;;;4958825;28;20676;-54
2023/01/03 13:29:57;;;;;;;2.95;2.38;;;;;;;;;;4972855;28;20050;-54
2023/01/03 13:32:29;;;;;;;6.57;2.38;;;;;;;;;;4982167;28;20062;-61
2023/01/03 13:35:04;;;;;;;3.60;2.40;;;;;;;;;;4971229;28;20050;-53
2023/01/03 13:37:31;;;;;;;2.72;2.17;;;;;;;;;;4978877;28;20054;-51
2023/01/03 13:40:10;;;;;;;2.45;1.95;;;;;;;;;;4975052;28;20165;-55
2023/01/03 13:42:44;;;;;;;3.95;2.20;;;;;;;;;;4969806;28;20046;-51
2023/01/03 13:45:11;;;;;;;;;;;;;;;;;;4969897;28;20051;-57
2023/01/03 13:47:44;;;;;;;5.50;2.55;;;;;;;;;;4971068;28;19928;-55
2023/01/03 13:50:26;;;;;;;2.67;2.03;;;;;;;;;;4969452;28;20051;-60
2023/01/03 13:53:16;;;;;;;4.38;2.25;;;;;;;;;;4968421;28;20144;-51
2023/01/03 13:56:19;;;;;;;4.30;2.45;;;;;;;;;;4955775;28;20057;-47
2023/01/03 13:59:10;;;;;;;5.85;2.70;;;;;;;;;;4973151;28;20187;-53
2023/01/03 14:01:44;;;;;;;3.88;2.30;;;;;;;;;;4970375;28;20049;-47
2023/01/03 14:04:27;;;;;;;3.53;2.33;;;;;;;;;;4972416;28;20052;-48
2023/01/03 14:06:54;;;;;;;3.38;2.10;;;;;;;;;;4966559;28;20050;-59
2023/01/03 14:09:54;;;;;;;3.10;2.17;;;;;;;;;;4964652;28;20071;-54
2023/01/03 14:12:40;;;;;;;5.55;2.55;;;;;;;;;;4969235;28;20425;-62
2023/01/03 14:15:16;;;;;;;3.53;2.17;;;;;;;;;;4970414;28;20565;-62
2023/01/03 14:18:01;;;;;;;5.20;2.65;;;;;;;;;;4970913;28;20307;-63
2023/01/03 14:20:44;;;;;;;3.53;2.40;;;;;;;;;;4974713;28;20069;-62
2023/01/03 14:23:13;;;;;;;6.10;2.53;;;;;;;;;;4970971;28;21546;-62
2023/01/03 14:26:13;;;;;;;6.43;2.90;;;;;;;;;;4967401;28;20069;-49
2023/01/03 14:28:40;;;;;;;3.92;2.50;;;;;;;;;;4967263;28;20061;-50
2023/01/03 14:31:22;;;;;;;3.80;2.25;;;;;;;;;;4968671;28;20145;-52
2023/01/03 14:33:52;;;;;;;2.70;1.67;;;;;;;;;;4968521;28;20502;-47
2023/01/03 14:36:27;;;;;;;4.18;1.63;;;;;;;;;;4968423;28;20047;-49
2023/01/03 14:38:55;;;;;;;4.10;1.60;;;;;;;;;;4971639;28;20050;-52
2023/01/03 14:41:25;;;;;;;4.15;2.10;;;;;;;;;;4969368;28;20056;-51
2023/01/03 14:44:05;;;;;;;3.78;1.98;;;;;;;;;;4967081;28;20074;-52
2023/01/03 14:46:34;;;;;;;4.72;2.60;;;;;;;;;;4968929;28;20581;-63
2023/01/03 14:49:19;;;;;;;4.32;2.30;;;;;;;;;;4969326;28;20063;-64
2023/01/03 14:51:47;;;;;;;4.03;2.30;;;;;;;;;;4970626;28;20058;-64
2023/01/03 14:54:21;;;;;;;4.35;2.92;;;;;;;;;;4963528;28;20050;-65
2023/01/03 14:56:48;;;;;;;5.50;2.80;;;;;;;;;;4974556;28;20058;-65
2023/01/03 14:59:16;;;;;;;4.53;2.60;;;;;;;;;;4973243;28;20639;-64
2023/01/03 15:01:50;;;;;;;7.20;5.38;;;;;;;;;;4975553;28;20564;-65
2023/01/03 15:04:18;;;;;;;407.23;19.15;;;;;;;;;;4976234;28;20097;-62
2023/01/03 15:06:45;;;;;;;;;;;;;;;;;;4973223;28;20112;-57
2023/01/03 15:09:24;;;;;;;;;;;;;;;;;;4972099;28;19928;-58
2023/01/03 15:11:55;;;;;;;4.70;2.83;;;;;;;;;;4974264;28;20000;-57
2023/01/03 15:14:30;;;;;;;4.95;1.95;;;;;;;;;;4972666;28;20052;-58
2023/01/03 15:17:05;;;;;;;5.47;3.15;;;;;;;;;;4971286;28;20051;-58
2023/01/03 15:19:47;;;;;;;5.80;2.53;;;;;;;;;;4977045;28;20057;-56
2023/01/03 15:22:22;;;;;;;8.23;3.90;;;;;;;;;;4973697;28;20050;-54
2023/01/03 15:25:04;;;;;;;6.20;3.20;;;;;;;;;;4973153;28;20058;-55
2023/01/03 15:27:31;;;;;;;5.78;2.58;;;;;;;;;;4970237;28;20698;-54
2023/01/03 15:30:11;;;;;;;3.08;1.98;;;;;;;;;;4974864;28;20574;-55
2023/01/03 15:32:59;;;;;;;6.13;3.35;;;;;;;;;;4971299;28;20758;-59
2023/01/03 15:35:42;;;;;;;3.30;2.13;;;;;;;;;;4969654;28;20054;-57
2023/01/03 15:38:18;;;;;;;5.60;2.65;;;;;;;;;;4967853;28;20145;-57
2023/01/03 15:40:52;;;;;;;6.97;3.80;;;;;;;;;;4969130;28;20051;-52
2023/01/03 15:43:22;;;;;;;9.32;3.92;;;;;;;;;;4967215;28;20065;-70
2023/01/03 15:45:59;;;;;;;4.93;3.25;;;;;;;;;;4971294;28;20486;-70
2023/01/03 15:48:26;;;;;;;3.83;2.42;;;;;;;;;;4971085;28;20149;-69
2023/01/03 15:51:00;;;;;;;5.82;3.40;;;;;;;;;;4975245;28;20145;-69
2023/01/03 15:53:27;;;;;;;7.43;3.80;;;;;;;;;;4970871;28;20071;-69
2023/01/03 15:56:12;;;;;;;6.25;3.63;;;;;;;;;;4967548;28;20424;-69
2023/01/03 15:58:39;;;;;;;6.40;3.53;;;;;;;;;;4969289;28;20072;-63
2023/01/03 16:01:13;;;;;;;5.70;3.40;;;;;;;;;;4966349;28;20149;-56
2023/01/03 16:03:40;;;;;;;;;;;;;;;;;;4969308;28;20112;-50
2023/01/03 16:06:08;;;;;;;5.63;2.85;;;;;;;;;;4966320;28;19965;-50
2023/01/03 16:08:41;;;;;;;5.75;2.72;;;;;;;;;;4962722;28;20056;-52
2023/01/03 16:11:13;;;;;;;6.63;3.97;;;;;;;;;;4963684;28;20142;-52
2023/01/03 16:14:06;;;;;;;8.73;3.50;;;;;;;;;;4966386;28;20050;-53
2023/01/03 16:16:35;;;;;;;7.78;3.45;;;;;;;;;;4961222;28;20050;-55
2023/01/03 16:19:23;;;;;;;5.70;3.45;;;;;;;;;;4966542;28;20145;-63
2023/01/03 16:21:51;;;;;;;6.47;3.05;;;;;;;;;;4963125;28;20498;-63
2023/01/03 16:24:45;;;;;;;8.35;3.25;;;;;;;;;;4967781;28;20920;-63
2023/01/03 16:27:14;;;;;;;5.78;3.38;;;;;;;;;;4971891;28;20478;-63
2023/01/03 16:29:48;;;;;;;5.93;3.10;;;;;;;;;;4965905;28;20058;-63
2023/01/03 16:32:19;;;;;;;9.05;3.00;;;;;;;;;;4966016;28;20569;-63
2023/01/03 16:34:47;;;;;;;5.13;2.65;;;;;;;;;;4968256;28;20104;-51
2023/01/03 16:37:21;;;;;;;5.10;3.08;;;;;;;;;;4971936;28;20145;-60
2023/01/03 16:39:48;;;;;;;4.43;3.00;;;;;;;;;;4965651;28;20051;-62
2023/01/03 16:42:29;;;;;;;5.30;3.00;;;;;;;;;;4970822;28;20169;-61
2023/01/03 16:44:56;;;;;;;5.60;2.80;;;;;;;;;;4972326;28;20514;-62
2023/01/03 16:47:32;;;;;;;5.32;2.58;;;;;;;;;;4965896;28;20752;-62
2023/01/03 16:50:00;;;;;;;5.03;2.75;;;;;;;;;;4967992;28;20062;-59
2023/01/03 16:52:31;;;;;;;6.05;2.78;;;;;;;;;;4967768;28;20135;-69